This is the latest recevied weather packets stored in our database for station/object WBKK. If no packets are shown the sender has not sent any weather packets the latest 10 day(s).
| Time | Temp. | Humidity | Pressure | Rain* | Wind** | Luminosity | Snow |
|---|---|---|---|---|---|---|---|
| 1778035266 | 31.67° C | 70% | 1008 hPa | - | - | - | - |
| 1778033528 | 30.56° C | 74% | 1008 hPa | - | - | - | - |
| 1778031661 | 30° C | 79% | 1009 hPa | - | - | - | - |
| 1778029931 | 30° C | 79% | 1008 hPa | - | - | - | - |
| 1778028063 | 28.89° C | 79% | 1008 hPa | - | - | - | - |
| 1778026330 | 28.89° C | 79% | 1008 hPa | - | - | - | - |
| 1778024461 | 26.67° C | 88% | 1008 hPa | - | - | - | - |
| 1778022728 | 25.56° C | 94% | 1007 hPa | - | - | - | - |
| 1778020890 | 25° C | 94% | 1007 hPa | - | - | - | - |
| 1778019153 | 25° C | 94% | 1007 hPa | - | - | - | - |
| 1778017264 | 25° C | 94% | 1007 hPa | - | - | - | - |
| 1778015530 | 25° C | 94% | 1006 hPa | - | - | - | - |
| 1778013665 | 25° C | 94% | 1006 hPa | - | - | - | - |
| 1778011929 | 25° C | 94% | 1006 hPa | - | - | - | - |
| 1778010060 | 25.56° C | 88% | 1006 hPa | - | - | - | - |
| 1778008328 | 25.56° C | 88% | 1006 hPa | - | - | - | - |
| 1778006490 | 25.56° C | 88% | 1006 hPa | - | - | - | - |
| 1778004758 | 25.56° C | 94% | 1007 hPa | - | - | - | - |
| 1778002860 | 25.56° C | 94% | 1007 hPa | - | - | - | - |
| 1778001128 | 25.56° C | 94% | 1007 hPa | - | - | - | - |
| 1777999262 | 25.56° C | 94% | 1008 hPa | - | - | - | - |
| 1777997530 | 25.56° C | 94% | 1008 hPa | - | - | - | - |
| 1777995660 | 25.56° C | 94% | 1008 hPa | - | - | - | - |
| 1777995124 | 25.56° C | 94% | 1008 hPa | - | - | - | - |
| 1777994541 | 26.11° C | 82% | 1010 hPa | - | - | - | - |
* Rain since midnight (hover to see other rain measurements)
** Current wind speed in m/s (hover to see current wind gust speed)